createdAt,value
2023-05-25T00:02:29.488Z,99.90
2023-05-25T00:04:58.406Z,99.90
2023-05-25T00:07:26.500Z,99.90
2023-05-25T00:09:54.549Z,99.90
2023-05-25T00:12:22.677Z,99.90
2023-05-25T00:14:51.421Z,99.90
2023-05-25T00:17:19.861Z,99.90
2023-05-25T00:19:49.351Z,99.90
2023-05-25T00:22:17.640Z,99.90
2023-05-25T00:24:45.760Z,99.90
2023-05-25T00:27:13.961Z,99.90
2023-05-25T00:29:42.150Z,99.90
2023-05-25T00:32:10.286Z,99.90
2023-05-25T00:34:38.521Z,99.90
2023-05-25T00:37:08.537Z,99.90
2023-05-25T00:39:39.202Z,99.90
2023-05-25T00:42:08.929Z,99.90
2023-05-25T00:44:37.003Z,99.90
2023-05-25T00:47:05.525Z,99.90
2023-05-25T00:49:37.435Z,99.90
2023-05-25T00:52:06.476Z,99.90
2023-05-25T00:54:38.808Z,99.90
2023-05-25T00:57:09.040Z,99.90
2023-05-25T00:59:41.633Z,99.90
2023-05-25T01:02:16.366Z,99.90
2023-05-25T01:04:46.525Z,99.90
2023-05-25T01:07:22.256Z,99.90
2023-05-25T01:09:57.356Z,99.90
2023-05-25T01:12:28.069Z,99.90
2023-05-25T01:14:57.783Z,99.90
2023-05-25T01:17:29.031Z,99.90
2023-05-25T01:20:09.450Z,99.90
2023-05-25T01:22:47.628Z,99.90
2023-05-25T01:25:21.723Z,99.90
2023-05-25T01:27:52.710Z,99.90
2023-05-25T01:30:22.328Z,99.90
2023-05-25T01:32:52.290Z,99.90
2023-05-25T01:35:21.863Z,99.90
2023-05-25T01:37:53.354Z,99.90
2023-05-25T01:40:21.637Z,99.90
2023-05-25T01:42:49.720Z,99.90
2023-05-25T01:45:17.861Z,99.90
2023-05-25T01:47:53.468Z,99.90
2023-05-25T01:50:27.849Z,99.90
2023-05-25T01:53:03.358Z,99.90
2023-05-25T01:55:39.493Z,99.90
2023-05-25T01:58:09.497Z,99.90
2023-05-25T02:00:39.095Z,99.90
2023-05-25T02:03:10.099Z,99.90
2023-05-25T02:05:38.898Z,99.90
2023-05-25T02:08:09.849Z,99.90
2023-05-25T02:10:38.092Z,99.90
2023-05-25T02:13:06.381Z,99.90
2023-05-25T02:15:35.285Z,99.90
2023-05-25T02:18:05.721Z,99.90
2023-05-25T02:20:34.014Z,99.90
2023-05-25T02:23:02.132Z,99.90
2023-05-25T02:25:31.735Z,99.90
2023-05-25T02:27:59.852Z,99.90
2023-05-25T02:30:28.221Z,99.90
2023-05-25T02:32:58.866Z,99.90
2023-05-25T02:35:27.025Z,99.90
2023-05-25T02:37:55.262Z,99.90
2023-05-25T02:40:23.853Z,99.90
2023-05-25T02:42:53.370Z,99.90
2023-05-25T02:45:21.715Z,99.90
2023-05-25T02:47:49.957Z,99.90
2023-05-25T02:50:20.560Z,99.90
2023-05-25T02:52:52.354Z,99.90
2023-05-25T02:55:20.706Z,99.90
2023-05-25T02:57:48.900Z,99.90
2023-05-25T03:00:34.282Z,99.90
2023-05-25T03:03:02.570Z,99.90
2023-05-25T03:05:35.408Z,99.90
2023-05-25T03:08:03.954Z,99.90
2023-05-25T03:10:32.542Z,99.90
2023-05-25T03:13:01.605Z,99.90
2023-05-25T03:15:30.065Z,99.90
2023-05-25T03:18:01.698Z,99.90
2023-05-25T03:20:34.811Z,99.90
2023-05-25T03:23:03.288Z,99.90
2023-05-25T03:25:32.033Z,99.90
2023-05-25T03:28:02.129Z,99.90
2023-05-25T03:30:31.832Z,99.90
2023-05-25T03:33:01.707Z,99.90
2023-05-25T03:35:35.701Z,99.90
2023-05-25T03:38:03.742Z,99.90
2023-05-25T03:40:32.030Z,99.90
2023-05-25T03:43:00.109Z,99.90
2023-05-25T03:45:29.709Z,99.90
2023-05-25T03:47:58.132Z,99.90
2023-05-25T03:50:28.674Z,99.90
2023-05-25T03:52:58.511Z,99.90
2023-05-25T03:55:26.932Z,99.90
2023-05-25T03:57:55.045Z,99.90
2023-05-25T04:00:23.273Z,99.90
2023-05-25T04:02:52.121Z,99.90
2023-05-25T04:05:21.701Z,99.90
2023-05-25T04:07:52.262Z,99.90
2023-05-25T04:10:20.600Z,99.90
2023-05-25T04:12:48.836Z,99.90
2023-05-25T04:15:17.666Z,99.90
2023-05-25T04:17:59.582Z,99.90
2023-05-25T04:20:27.896Z,99.90
2023-05-25T04:22:57.911Z,99.90
2023-05-25T04:25:29.247Z,99.90
2023-05-25T04:27:58.400Z,99.90
2023-05-25T04:30:47.987Z,99.90
2023-05-25T04:33:42.831Z,99.90
2023-05-25T04:36:21.237Z,99.90
2023-05-25T04:38:52.130Z,99.90
2023-05-25T04:41:20.388Z,99.90
2023-05-25T04:44:07.785Z,99.90
2023-05-25T04:46:41.246Z,99.90
2023-05-25T04:49:18.979Z,99.90
2023-05-25T04:51:47.129Z,99.90
2023-05-25T04:54:17.478Z,99.90
2023-05-25T04:56:46.060Z,99.90
2023-05-25T04:59:14.399Z,99.90
2023-05-25T05:01:44.583Z,99.90
2023-05-25T05:04:16.319Z,99.90
2023-05-25T05:06:44.669Z,99.90
2023-05-25T05:09:20.498Z,99.90
2023-05-25T05:11:49.667Z,99.90
2023-05-25T05:14:19.180Z,99.90
2023-05-25T05:16:48.676Z,99.90
2023-05-25T05:19:17.433Z,99.90
2023-05-25T05:21:45.910Z,99.90
2023-05-25T05:24:14.696Z,99.90
2023-05-25T05:26:55.511Z,99.90
2023-05-25T05:29:29.467Z,99.90
2023-05-25T05:31:58.337Z,99.90
2023-05-25T05:34:27.076Z,99.90
2023-05-25T05:36:58.463Z,99.90
2023-05-25T05:39:28.902Z,99.90
2023-05-25T05:41:58.543Z,99.90
2023-05-25T05:44:29.260Z,99.90
2023-05-25T05:47:00.802Z,99.90
2023-05-25T05:49:30.922Z,99.90
2023-05-25T05:52:00.211Z,99.90
2023-05-25T05:54:29.078Z,99.90
2023-05-25T05:57:02.505Z,99.90
2023-05-25T05:59:30.617Z,99.90
2023-05-25T06:01:58.817Z,99.90
2023-05-25T06:04:28.907Z,99.90
2023-05-25T06:06:58.956Z,99.90
2023-05-25T06:09:27.641Z,99.90
2023-05-25T06:12:01.573Z,99.90
2023-05-25T06:14:30.416Z,99.90
2023-05-25T06:17:02.684Z,99.90
2023-05-25T06:19:31.161Z,99.90
2023-05-25T06:21:59.663Z,99.90
2023-05-25T06:24:27.766Z,99.90
2023-05-25T06:26:55.902Z,99.90
2023-05-25T06:29:25.800Z,99.90
2023-05-25T06:31:53.994Z,99.90
2023-05-25T06:34:22.113Z,99.90
2023-05-25T06:36:50.412Z,99.90
2023-05-25T06:39:19.261Z,99.90
2023-05-25T06:41:47.380Z,99.90
2023-05-25T06:44:28.327Z,99.90
2023-05-25T06:46:56.451Z,99.90
2023-05-25T06:49:24.686Z,99.90
2023-05-25T06:51:52.975Z,99.90
2023-05-25T06:54:21.185Z,99.90
2023-05-25T06:56:49.441Z,99.90
2023-05-25T06:59:18.332Z,99.90
2023-05-25T07:01:48.911Z,99.90
2023-05-25T07:04:17.009Z,99.90
2023-05-25T07:06:45.282Z,99.90
2023-05-25T07:09:14.086Z,99.90
2023-05-25T07:11:42.164Z,99.90
2023-05-25T07:14:10.567Z,99.90
2023-05-25T07:16:39.301Z,99.90
2023-05-25T07:19:08.809Z,99.90
2023-05-25T07:21:37.544Z,99.90
2023-05-25T07:24:06.546Z,99.90
2023-05-25T07:26:35.288Z,99.90
2023-05-25T07:29:04.092Z,99.90
2023-05-25T07:31:32.182Z,99.90
2023-05-25T07:34:00.467Z,99.90
2023-05-25T07:36:29.913Z,99.90
2023-05-25T07:38:59.009Z,99.90
2023-05-25T07:41:27.347Z,99.90
2023-05-25T07:43:55.615Z,99.90
2023-05-25T07:46:25.966Z,99.90
2023-05-25T07:48:54.678Z,99.90
2023-05-25T07:51:23.410Z,99.90
2023-05-25T07:53:54.226Z,99.90
2023-05-25T07:56:22.552Z,99.90
2023-05-25T07:58:50.767Z,99.90
2023-05-25T08:01:18.930Z,99.90
2023-05-25T08:03:49.420Z,99.90
2023-05-25T08:06:18.681Z,99.90
2023-05-25T08:08:47.127Z,99.90
2023-05-25T08:11:18.035Z,99.90
2023-05-25T08:13:46.194Z,99.90
2023-05-25T08:18:46.480Z,99.90
2023-05-25T08:21:14.696Z,99.90
2023-05-25T08:23:43.311Z,99.90
2023-05-25T08:26:31.080Z,99.90
2023-05-25T08:29:02.389Z,99.90
2023-05-25T08:31:30.919Z,99.90
2023-05-25T08:33:59.162Z,99.90
2023-05-25T08:36:27.990Z,99.90
2023-05-25T08:38:56.282Z,99.60
2023-05-25T08:41:24.360Z,99.90
2023-05-25T08:43:52.776Z,99.90
2023-05-25T08:46:31.734Z,99.10
2023-05-25T08:49:03.440Z,98.20
2023-05-25T08:51:38.118Z,99.20
2023-05-25T08:54:11.489Z,98.70
2023-05-25T08:56:49.854Z,99.90
2023-05-25T08:59:30.120Z,99.00
2023-05-25T09:02:08.173Z,98.90
2023-05-25T09:04:36.846Z,98.00
2023-05-25T09:07:10.420Z,98.60
2023-05-25T09:09:40.613Z,97.30
2023-05-25T09:12:10.020Z,97.80
2023-05-25T09:14:45.806Z,97.50
2023-05-25T09:17:15.925Z,96.40
2023-05-25T09:19:44.258Z,95.80
2023-05-25T09:22:16.779Z,96.40
2023-05-25T09:24:45.986Z,96.10
2023-05-25T09:27:18.341Z,96.20
2023-05-25T09:29:49.087Z,96.10
2023-05-25T09:32:21.290Z,96.80
2023-05-25T09:34:49.452Z,96.60
2023-05-25T09:37:19.446Z,95.90
2023-05-25T09:39:48.758Z,96.70
2023-05-25T09:42:17.614Z,95.70
2023-05-25T09:44:48.019Z,96.20
2023-05-25T09:47:17.053Z,95.00
2023-05-25T09:49:50.407Z,94.90
2023-05-25T09:52:18.479Z,95.90
2023-05-25T09:54:47.188Z,95.20
2023-05-25T09:57:16.149Z,94.20
2023-05-25T09:59:45.424Z,95.60
2023-05-25T10:02:13.760Z,94.80
2023-05-25T10:04:42.333Z,94.50
2023-05-25T10:07:12.285Z,94.00
2023-05-25T10:09:42.631Z,94.00
2023-05-25T10:12:11.344Z,95.50
2023-05-25T10:14:40.121Z,95.20
2023-05-25T10:17:12.334Z,94.90
2023-05-25T10:19:46.471Z,94.60
2023-05-25T10:22:22.098Z,95.40
2023-05-25T10:24:57.015Z,93.90
2023-05-25T10:27:29.560Z,95.40
2023-05-25T10:29:58.469Z,93.50
2023-05-25T10:32:28.350Z,94.30
2023-05-25T10:34:58.436Z,94.40
2023-05-25T10:37:29.600Z,94.20
2023-05-25T10:39:59.285Z,94.20
2023-05-25T10:42:27.770Z,93.60
2023-05-25T10:44:56.740Z,95.10
2023-05-25T10:47:25.722Z,95.70
2023-05-25T10:49:55.778Z,91.90
2023-05-25T10:52:30.000Z,91.60
2023-05-25T10:54:59.276Z,91.80
2023-05-25T10:57:27.757Z,93.70
2023-05-25T11:00:01.576Z,92.90
2023-05-25T11:02:30.389Z,93.00
2023-05-25T11:05:32.412Z,93.60
2023-05-25T11:08:03.214Z,91.30
2023-05-25T11:10:47.386Z,90.70
2023-05-25T11:13:33.706Z,92.10
2023-05-25T11:16:20.239Z,92.70
2023-05-25T11:18:52.812Z,91.80
2023-05-25T11:21:40.791Z,90.50
2023-05-25T11:24:15.863Z,91.10
2023-05-25T11:27:01.963Z,91.20
2023-05-25T11:29:33.290Z,91.30
2023-05-25T11:32:02.807Z,91.20
2023-05-25T11:34:32.402Z,92.10
2023-05-25T11:37:03.845Z,91.00
2023-05-25T11:39:33.458Z,90.10
2023-05-25T11:42:06.784Z,91.00
2023-05-25T11:44:38.016Z,92.30
2023-05-25T11:47:09.982Z,89.60
2023-05-25T11:49:46.254Z,90.00
2023-05-25T11:52:16.249Z,88.40
2023-05-25T11:54:46.782Z,89.00
2023-05-25T11:57:17.302Z,85.90
2023-05-25T11:59:52.364Z,87.00
2023-05-25T12:02:21.782Z,85.90
2023-05-25T12:04:57.308Z,86.60
2023-05-25T12:07:26.461Z,83.00
2023-05-25T12:10:06.144Z,83.60
2023-05-25T12:12:40.942Z,84.80
2023-05-25T12:15:11.486Z,79.50
2023-05-25T12:17:43.027Z,83.80
2023-05-25T12:20:15.302Z,86.70
2023-05-25T12:22:44.893Z,86.30
2023-05-25T12:25:16.044Z,80.30
2023-05-25T12:27:44.157Z,82.10
2023-05-25T12:30:13.008Z,78.60
2023-05-25T12:32:55.667Z,76.70
2023-05-25T12:35:23.878Z,78.60
2023-05-25T12:37:52.663Z,80.30
2023-05-25T12:40:24.689Z,79.50
2023-05-25T12:42:59.212Z,77.10
2023-05-25T12:45:27.967Z,76.80
2023-05-25T12:47:56.304Z,80.60
2023-05-25T12:50:24.744Z,81.80
2023-05-25T12:52:53.000Z,80.20
2023-05-25T12:55:27.249Z,79.50
2023-05-25T12:57:57.821Z,84.50
2023-05-25T13:00:28.448Z,85.60
2023-05-25T13:02:56.903Z,82.20
2023-05-25T13:05:26.663Z,79.30
2023-05-25T13:07:56.684Z,79.80
2023-05-25T13:10:26.559Z,77.50
2023-05-25T13:12:57.326Z,80.80
2023-05-25T13:15:27.159Z,82.30
2023-05-25T13:17:58.510Z,84.50
2023-05-25T13:20:28.246Z,83.50
2023-05-25T13:22:56.790Z,83.20
2023-05-25T13:25:27.485Z,83.20
2023-05-25T13:27:57.908Z,84.50
2023-05-25T13:30:26.810Z,86.50
2023-05-25T13:32:55.376Z,84.40
2023-05-25T13:35:37.898Z,84.20
2023-05-25T13:38:06.740Z,81.90
2023-05-25T13:40:36.201Z,85.80
2023-05-25T13:43:07.340Z,87.50
2023-05-25T13:45:35.624Z,84.70
2023-05-25T13:48:03.914Z,84.30
2023-05-25T13:50:32.374Z,85.80
2023-05-25T13:53:00.583Z,83.60
2023-05-25T13:55:31.305Z,83.20
2023-05-25T13:58:01.094Z,85.80
2023-05-25T14:00:29.809Z,82.90
2023-05-25T14:02:58.434Z,81.90
2023-05-25T14:05:26.681Z,80.70
2023-05-25T14:07:56.418Z,75.50
2023-05-25T14:10:25.103Z,78.40
2023-05-25T14:12:53.323Z,77.00
2023-05-25T14:15:22.745Z,74.60
2023-05-25T14:17:51.237Z,75.90
2023-05-25T14:20:27.341Z,77.00
2023-05-25T14:22:55.762Z,77.60
2023-05-25T14:25:23.941Z,77.20
2023-05-25T14:27:52.142Z,77.00
2023-05-25T14:30:21.132Z,79.00
2023-05-25T14:32:51.025Z,79.80
2023-05-25T14:35:19.247Z,82.20
2023-05-25T14:37:47.313Z,78.50
2023-05-25T14:40:15.411Z,79.20
2023-05-25T14:42:43.712Z,79.60
2023-05-25T14:45:13.989Z,78.40
2023-05-25T14:47:43.624Z,76.50
2023-05-25T14:50:13.591Z,76.10
2023-05-25T14:52:42.053Z,77.20
2023-05-25T14:55:10.928Z,79.40
2023-05-25T14:57:39.026Z,79.40
2023-05-25T15:00:08.578Z,78.00
2023-05-25T15:02:36.963Z,75.50
2023-05-25T15:05:05.684Z,78.60
2023-05-25T15:07:35.113Z,76.80
2023-05-25T15:10:03.549Z,75.40
2023-05-25T15:12:31.797Z,71.90
2023-05-25T15:14:59.994Z,74.20
2023-05-25T15:17:30.055Z,74.60
2023-05-25T15:19:58.230Z,76.20
2023-05-25T15:22:27.547Z,75.40
2023-05-25T15:24:57.151Z,75.00
2023-05-25T15:27:25.357Z,73.80
2023-05-25T15:29:53.540Z,76.70
2023-05-25T15:32:21.543Z,75.90
2023-05-25T15:34:49.558Z,76.80
2023-05-25T15:37:17.601Z,74.00
2023-05-25T15:39:45.633Z,73.90
2023-05-25T15:42:15.113Z,73.10
2023-05-25T15:44:43.200Z,73.20
2023-05-25T15:47:11.277Z,73.80
2023-05-25T15:49:40.701Z,74.60
2023-05-25T15:52:08.839Z,77.20
2023-05-25T15:54:36.947Z,75.10
2023-05-25T15:57:05.799Z,76.30
2023-05-25T15:59:35.658Z,76.20
2023-05-25T16:02:05.630Z,75.70
2023-05-25T16:04:33.814Z,76.20
2023-05-25T16:07:01.931Z,76.00
2023-05-25T16:09:30.051Z,75.60
2023-05-25T16:12:00.254Z,75.90
2023-05-25T16:14:28.380Z,73.10
2023-05-25T16:16:57.807Z,74.70
2023-05-25T16:19:25.955Z,73.50
2023-05-25T16:21:54.124Z,75.40
2023-05-25T16:24:22.134Z,75.10
2023-05-25T16:26:50.327Z,76.10
2023-05-25T16:29:28.512Z,74.90
2023-05-25T16:31:58.422Z,73.80
2023-05-25T16:34:26.548Z,73.30
2023-05-25T16:36:54.671Z,72.30
2023-05-25T16:39:23.199Z,72.10
2023-05-25T16:41:51.332Z,73.60
2023-05-25T16:44:19.399Z,73.00
2023-05-25T16:46:47.491Z,71.30
2023-05-25T16:49:16.881Z,72.50
2023-05-25T16:51:44.991Z,73.00
2023-05-25T16:54:15.150Z,73.30
2023-05-25T16:56:43.292Z,72.80
2023-05-25T16:59:11.496Z,72.70
2023-05-25T17:01:39.614Z,71.60
2023-05-25T17:04:07.983Z,71.20
2023-05-25T17:06:37.694Z,68.60
2023-05-25T17:09:05.901Z,69.80
2023-05-25T17:11:34.252Z,71.00
2023-05-25T17:14:02.260Z,71.00
2023-05-25T17:16:31.428Z,70.00
2023-05-25T17:18:59.672Z,68.30
2023-05-25T17:21:27.816Z,68.50
2023-05-25T17:23:58.937Z,68.40
2023-05-25T17:26:28.981Z,67.20
2023-05-25T17:29:00.691Z,65.70
2023-05-25T17:31:28.950Z,67.60
2023-05-25T17:33:57.109Z,67.20
2023-05-25T17:36:25.533Z,68.90
2023-05-25T17:38:53.557Z,68.40
2023-05-25T17:41:23.268Z,67.80
2023-05-25T17:43:53.603Z,67.30
2023-05-25T17:46:23.496Z,66.60
2023-05-25T17:48:51.652Z,67.40
2023-05-25T17:51:21.199Z,68.80
2023-05-25T17:53:49.259Z,69.00
2023-05-25T17:56:17.417Z,67.40
2023-05-25T17:58:47.852Z,68.10
2023-05-25T18:01:18.180Z,69.20
2023-05-25T18:03:46.420Z,69.60
2023-05-25T18:06:14.850Z,69.60
2023-05-25T18:08:43.234Z,70.10
2023-05-25T18:11:11.617Z,71.10
2023-05-25T18:13:39.714Z,71.40
2023-05-25T18:16:09.307Z,71.00
2023-05-25T18:18:37.798Z,71.30
2023-05-25T18:21:06.230Z,71.60
2023-05-25T18:23:37.311Z,70.80
2023-05-25T18:26:06.044Z,71.70
2023-05-25T18:28:34.115Z,72.30
2023-05-25T18:31:02.412Z,71.90
2023-05-25T18:33:31.844Z,72.90
2023-05-25T18:35:59.910Z,73.90
2023-05-25T18:38:28.010Z,73.60
2023-05-25T18:40:56.208Z,73.70
2023-05-25T18:43:25.066Z,74.30
2023-05-25T18:45:55.383Z,74.50
2023-05-25T18:48:24.261Z,75.70
2023-05-25T18:50:53.848Z,76.00
2023-05-25T18:53:22.193Z,76.60
2023-05-25T18:55:53.163Z,77.30
2023-05-25T18:58:21.306Z,77.70
2023-05-25T19:00:49.557Z,78.10
2023-05-25T19:03:17.866Z,78.70
2023-05-25T19:05:46.623Z,79.30
2023-05-25T19:08:16.477Z,79.80
2023-05-25T19:10:44.673Z,81.20
2023-05-25T19:13:12.920Z,81.70
2023-05-25T19:15:41.020Z,82.20
2023-05-25T19:18:09.147Z,82.30
2023-05-25T19:20:37.422Z,82.50
2023-05-25T19:23:05.554Z,82.90
2023-05-25T19:25:35.212Z,83.40
2023-05-25T19:28:03.671Z,83.40
2023-05-25T19:30:31.901Z,83.60
2023-05-25T19:33:00.062Z,83.80
2023-05-25T19:35:28.582Z,84.20
2023-05-25T19:37:56.672Z,84.70
2023-05-25T19:40:25.070Z,85.40
2023-05-25T19:42:57.078Z,86.10
2023-05-25T19:45:25.417Z,86.70
2023-05-25T19:47:53.979Z,87.40
2023-05-25T19:50:22.431Z,87.90
2023-05-25T19:52:50.834Z,88.00
2023-05-25T19:55:21.993Z,88.60
2023-05-25T19:57:50.206Z,89.00
2023-05-25T20:00:26.821Z,89.00
2023-05-25T20:02:55.856Z,89.30
2023-05-25T20:05:24.316Z,90.00
2023-05-25T20:07:53.009Z,91.00
2023-05-25T20:10:21.234Z,91.50
2023-05-25T20:12:50.326Z,91.80
2023-05-25T20:15:19.817Z,91.90
2023-05-25T20:17:48.065Z,92.00
2023-05-25T20:20:16.398Z,92.00
2023-05-25T20:22:44.728Z,92.20
2023-05-25T20:25:12.963Z,92.50
2023-05-25T20:27:41.089Z,92.80
2023-05-25T20:30:10.064Z,93.10
2023-05-25T20:32:39.544Z,93.40
2023-05-25T20:35:08.541Z,94.10
2023-05-25T20:37:39.458Z,94.60
2023-05-25T20:40:08.435Z,95.10
2023-05-25T20:42:36.591Z,95.50
2023-05-25T20:45:07.177Z,95.70
2023-05-25T20:47:35.530Z,96.10
2023-05-25T20:50:05.377Z,96.20
2023-05-25T20:52:33.850Z,96.80
2023-05-25T20:55:01.995Z,97.10
2023-05-25T20:57:30.482Z,97.40
2023-05-25T20:59:59.932Z,97.70
2023-05-25T21:02:28.950Z,98.10
2023-05-25T21:04:57.282Z,98.50
2023-05-25T21:07:29.858Z,98.90
2023-05-25T21:09:59.450Z,99.20
2023-05-25T21:12:27.596Z,99.80
2023-05-25T21:14:56.444Z,99.90
2023-05-25T21:17:28.151Z,99.90
2023-05-25T21:19:56.614Z,99.90
2023-05-25T21:22:26.316Z,99.90
2023-05-25T21:24:54.431Z,99.90
2023-05-25T21:27:22.455Z,99.90
2023-05-25T21:29:50.531Z,99.90
2023-05-25T21:32:19.029Z,99.90
2023-05-25T21:34:47.169Z,99.90
2023-05-25T21:37:15.376Z,99.90
2023-05-25T21:39:45.502Z,99.90
2023-05-25T21:42:13.613Z,99.90
2023-05-25T21:44:41.944Z,99.90
2023-05-25T21:47:10.060Z,99.90
2023-05-25T21:49:38.233Z,99.90
2023-05-25T21:52:21.435Z,99.90
2023-05-25T21:54:50.869Z,99.90
2023-05-25T21:57:19.065Z,99.90
2023-05-25T21:59:47.196Z,99.90
2023-05-25T22:02:15.455Z,99.90
2023-05-25T22:04:43.625Z,99.90
2023-05-25T22:07:13.695Z,99.90
2023-05-25T22:09:41.702Z,99.90
2023-05-25T22:12:12.145Z,99.90
2023-05-25T22:14:40.472Z,99.90
2023-05-25T22:17:08.894Z,99.90
2023-05-25T22:19:37.008Z,99.90
2023-05-25T22:22:05.668Z,99.90
2023-05-25T22:24:34.002Z,99.90
2023-05-25T22:27:02.949Z,99.90
2023-05-25T22:29:32.568Z,99.90
2023-05-25T22:32:00.804Z,99.90
2023-05-25T22:34:28.897Z,99.90
2023-05-25T22:36:57.109Z,99.90
2023-05-25T22:39:25.400Z,99.90
2023-05-25T22:41:53.872Z,99.90
2023-05-25T22:44:21.894Z,99.90
2023-05-25T22:46:51.549Z,99.90
2023-05-25T22:49:19.704Z,99.90
2023-05-25T22:51:50.705Z,99.90
2023-05-25T22:54:19.648Z,99.90
2023-05-25T22:56:47.882Z,99.90
2023-05-25T22:59:15.999Z,99.90
2023-05-25T23:01:44.148Z,99.90
2023-05-25T23:04:14.163Z,99.90
2023-05-25T23:06:42.401Z,99.90
2023-05-25T23:09:11.206Z,99.90
2023-05-25T23:11:39.561Z,99.90
2023-05-25T23:14:08.790Z,99.90
2023-05-25T23:16:37.262Z,99.90
2023-05-25T23:19:06.192Z,99.90
2023-05-25T23:21:35.783Z,99.90
2023-05-25T23:24:03.854Z,99.90
2023-05-25T23:26:32.088Z,99.90
2023-05-25T23:29:00.202Z,99.90
2023-05-25T23:31:29.177Z,99.90
2023-05-25T23:33:57.354Z,99.90
2023-05-25T23:36:26.186Z,99.90
2023-05-25T23:38:55.965Z,99.90
2023-05-25T23:41:25.231Z,99.90
2023-05-25T23:43:55.218Z,99.90
2023-05-25T23:46:25.181Z,99.90
2023-05-25T23:48:53.320Z,99.90
2023-05-25T23:51:21.401Z,99.90
2023-05-25T23:53:52.466Z,99.90
2023-05-25T23:56:22.706Z,99.90
2023-05-25T23:58:50.796Z,99.90
